sensor_id;sensor_type;location;lat;lon;timestamp;temperature;humidity
44707;DHT22;30433;45.596;8.408;2023-04-09T00:01:39;8.80;94.90
44707;DHT22;30433;45.596;8.408;2023-04-09T00:07:42;9.10;94.70
44707;DHT22;30433;45.596;8.408;2023-04-09T00:13:44;8.80;95.00
44707;DHT22;30433;45.596;8.408;2023-04-09T00:19:46;9.00;94.70
44707;DHT22;30433;45.596;8.408;2023-04-09T00:25:50;9.10;94.70
44707;DHT22;30433;45.596;8.408;2023-04-09T00:31:52;8.90;94.90
44707;DHT22;30433;45.596;8.408;2023-04-09T00:37:54;8.80;95.10
44707;DHT22;30433;45.596;8.408;2023-04-09T00:43:57;8.70;95.40
44707;DHT22;30433;45.596;8.408;2023-04-09T00:50:00;8.80;95.20
44707;DHT22;30433;45.596;8.408;2023-04-09T00:56:02;8.40;95.50
44707;DHT22;30433;45.596;8.408;2023-04-09T01:02:06;8.50;95.50
44707;DHT22;30433;45.596;8.408;2023-04-09T01:08:10;8.40;95.70
44707;DHT22;30433;45.596;8.408;2023-04-09T01:14:15;8.40;95.90
44707;DHT22;30433;45.596;8.408;2023-04-09T01:20:28;8.50;95.80
44707;DHT22;30433;45.596;8.408;2023-04-09T01:26:34;8.30;95.80
44707;DHT22;30433;45.596;8.408;2023-04-09T01:32:40;8.20;96.00
44707;DHT22;30433;45.596;8.408;2023-04-09T01:38:43;8.20;96.20
44707;DHT22;30433;45.596;8.408;2023-04-09T01:44:45;8.20;95.90
44707;DHT22;30433;45.596;8.408;2023-04-09T01:50:49;8.10;96.40
44707;DHT22;30433;45.596;8.408;2023-04-09T01:56:51;8.20;96.20
44707;DHT22;30433;45.596;8.408;2023-04-09T02:02:54;8.30;96.10
44707;DHT22;30433;45.596;8.408;2023-04-09T02:08:58;8.10;96.30
44707;DHT22;30433;45.596;8.408;2023-04-09T02:15:01;8.10;96.30
44707;DHT22;30433;45.596;8.408;2023-04-09T02:21:03;7.60;96.60
44707;DHT22;30433;45.596;8.408;2023-04-09T02:27:07;7.50;96.90
44707;DHT22;30433;45.596;8.408;2023-04-09T02:33:09;7.30;97.10
44707;DHT22;30433;45.596;8.408;2023-04-09T02:39:11;7.10;97.10
44707;DHT22;30433;45.596;8.408;2023-04-09T02:45:15;7.30;97.20
44707;DHT22;30433;45.596;8.408;2023-04-09T02:51:17;7.00;97.20
44707;DHT22;30433;45.596;8.408;2023-04-09T02:57:18;6.90;97.60
44707;DHT22;30433;45.596;8.408;2023-04-09T03:03:22;6.90;97.80
44707;DHT22;30433;45.596;8.408;2023-04-09T03:09:24;6.80;97.70
44707;DHT22;30433;45.596;8.408;2023-04-09T03:15:26;6.80;97.90
44707;DHT22;30433;45.596;8.408;2023-04-09T03:21:29;7.00;97.60
44707;DHT22;30433;45.596;8.408;2023-04-09T03:27:32;6.70;97.90
44707;DHT22;30433;45.596;8.408;2023-04-09T03:33:34;6.90;97.70
44707;DHT22;30433;45.596;8.408;2023-04-09T03:39:37;7.00;97.90
44707;DHT22;30433;45.596;8.408;2023-04-09T03:45:39;7.20;97.10
44707;DHT22;30433;45.596;8.408;2023-04-09T03:51:41;6.90;97.50
44707;DHT22;30433;45.596;8.408;2023-04-09T03:57:45;6.70;97.30
44707;DHT22;30433;45.596;8.408;2023-04-09T04:03:47;6.80;97.80
44707;DHT22;30433;45.596;8.408;2023-04-09T04:09:49;7.00;97.30
44707;DHT22;30433;45.596;8.408;2023-04-09T04:15:52;6.60;96.90
44707;DHT22;30433;45.596;8.408;2023-04-09T04:21:54;6.60;97.60
44707;DHT22;30433;45.596;8.408;2023-04-09T04:27:56;6.70;97.90
44707;DHT22;30433;45.596;8.408;2023-04-09T04:33:59;6.70;97.50
44707;DHT22;30433;45.596;8.408;2023-04-09T04:40:01;6.70;97.80
44707;DHT22;30433;45.596;8.408;2023-04-09T04:46:04;6.40;98.00
44707;DHT22;30433;45.596;8.408;2023-04-09T04:52:08;6.20;98.30
44707;DHT22;30433;45.596;8.408;2023-04-09T04:58:10;6.20;98.70
44707;DHT22;30433;45.596;8.408;2023-04-09T05:04:12;5.90;98.50
44707;DHT22;30433;45.596;8.408;2023-04-09T05:10:15;6.20;98.60
44707;DHT22;30433;45.596;8.408;2023-04-09T05:16:17;7.10;97.80
44707;DHT22;30433;45.596;8.408;2023-04-09T05:22:19;7.80;96.90
44707;DHT22;30433;45.596;8.408;2023-04-09T05:28:22;7.40;96.70
44707;DHT22;30433;45.596;8.408;2023-04-09T05:34:24;8.00;96.10
44707;DHT22;30433;45.596;8.408;2023-04-09T05:40:27;7.90;96.20
44707;DHT22;30433;45.596;8.408;2023-04-09T05:46:30;8.60;95.80
44707;DHT22;30433;45.596;8.408;2023-04-09T05:52:32;9.10;95.50
44707;DHT22;30433;45.596;8.408;2023-04-09T05:58:34;9.10;95.10
44707;DHT22;30433;45.596;8.408;2023-04-09T06:04:37;9.30;95.50
44707;DHT22;30433;45.596;8.408;2023-04-09T06:10:39;9.10;95.30
44707;DHT22;30433;45.596;8.408;2023-04-09T06:16:41;9.60;95.00
44707;DHT22;30433;45.596;8.408;2023-04-09T06:22:44;9.30;95.40
44707;DHT22;30433;45.596;8.408;2023-04-09T06:28:46;9.60;95.70
44707;DHT22;30433;45.596;8.408;2023-04-09T06:34:48;9.90;95.30
44707;DHT22;30433;45.596;8.408;2023-04-09T06:40:52;10.50;94.80
44707;DHT22;30433;45.596;8.408;2023-04-09T06:46:54;10.60;94.40
44707;DHT22;30433;45.596;8.408;2023-04-09T06:52:56;10.90;94.10
44707;DHT22;30433;45.596;8.408;2023-04-09T06:58:59;10.90;94.00
44707;DHT22;30433;45.596;8.408;2023-04-09T07:05:02;11.40;93.90
44707;DHT22;30433;45.596;8.408;2023-04-09T07:11:05;11.60;93.80
44707;DHT22;30433;45.596;8.408;2023-04-09T07:17:08;12.00;93.90
44707;DHT22;30433;45.596;8.408;2023-04-09T07:23:10;12.00;94.00
44707;DHT22;30433;45.596;8.408;2023-04-09T07:29:12;11.80;93.70
44707;DHT22;30433;45.596;8.408;2023-04-09T07:35:15;11.90;94.00
44707;DHT22;30433;45.596;8.408;2023-04-09T07:41:18;12.00;93.70
44707;DHT22;30433;45.596;8.408;2023-04-09T07:47:20;11.90;93.50
44707;DHT22;30433;45.596;8.408;2023-04-09T07:53:23;12.20;94.40
44707;DHT22;30433;45.596;8.408;2023-04-09T07:59:25;12.40;93.70
44707;DHT22;30433;45.596;8.408;2023-04-09T08:05:28;12.90;93.70
44707;DHT22;30433;45.596;8.408;2023-04-09T08:11:31;12.50;93.80
44707;DHT22;30433;45.596;8.408;2023-04-09T08:17:33;13.00;93.50
44707;DHT22;30433;45.596;8.408;2023-04-09T08:23:36;12.70;92.90
44707;DHT22;30433;45.596;8.408;2023-04-09T08:29:39;12.70;93.30
44707;DHT22;30433;45.596;8.408;2023-04-09T08:35:42;13.00;92.80
44707;DHT22;30433;45.596;8.408;2023-04-09T08:41:44;13.10;92.80
44707;DHT22;30433;45.596;8.408;2023-04-09T08:47:48;13.60;94.10
44707;DHT22;30433;45.596;8.408;2023-04-09T08:53:51;13.40;92.90
44707;DHT22;30433;45.596;8.408;2023-04-09T08:59:56;13.00;92.50
44707;DHT22;30433;45.596;8.408;2023-04-09T09:05:59;12.70;92.20
44707;DHT22;30433;45.596;8.408;2023-04-09T09:12:01;12.50;92.80
44707;DHT22;30433;45.596;8.408;2023-04-09T09:18:03;12.70;92.70
44707;DHT22;30433;45.596;8.408;2023-04-09T09:24:14;12.70;92.50
44707;DHT22;30433;45.596;8.408;2023-04-09T09:30:20;12.90;92.80
44707;DHT22;30433;45.596;8.408;2023-04-09T09:36:31;13.90;92.70
44707;DHT22;30433;45.596;8.408;2023-04-09T09:42:35;13.30;92.00
44707;DHT22;30433;45.596;8.408;2023-04-09T09:48:37;13.80;91.90
44707;DHT22;30433;45.596;8.408;2023-04-09T09:54:39;13.30;91.20
44707;DHT22;30433;45.596;8.408;2023-04-09T10:00:43;14.10;91.10
44707;DHT22;30433;45.596;8.408;2023-04-09T10:06:46;14.30;91.30
44707;DHT22;30433;45.596;8.408;2023-04-09T10:12:48;14.60;92.10
44707;DHT22;30433;45.596;8.408;2023-04-09T10:18:52;14.30;90.90
44707;DHT22;30433;45.596;8.408;2023-04-09T10:24:54;15.20;91.10
44707;DHT22;30433;45.596;8.408;2023-04-09T10:30:57;14.90;91.30
44707;DHT22;30433;45.596;8.408;2023-04-09T10:37:00;15.60;90.90
44707;DHT22;30433;45.596;8.408;2023-04-09T10:43:03;15.50;91.10
44707;DHT22;30433;45.596;8.408;2023-04-09T10:49:09;15.50;90.30
44707;DHT22;30433;45.596;8.408;2023-04-09T11:01:29;15.70;88.80
44707;DHT22;30433;45.596;8.408;2023-04-09T11:07:31;16.00;89.90
44707;DHT22;30433;45.596;8.408;2023-04-09T11:13:34;14.90;89.90
44707;DHT22;30433;45.596;8.408;2023-04-09T11:19:37;15.10;88.40
44707;DHT22;30433;45.596;8.408;2023-04-09T11:25:39;15.20;89.70
44707;DHT22;30433;45.596;8.408;2023-04-09T11:31:43;16.00;89.90
44707;DHT22;30433;45.596;8.408;2023-04-09T11:37:47;15.60;85.90
44707;DHT22;30433;45.596;8.408;2023-04-09T11:43:51;15.90;84.70
44707;DHT22;30433;45.596;8.408;2023-04-09T11:49:53;14.50;86.80
44707;DHT22;30433;45.596;8.408;2023-04-09T11:55:56;15.10;89.30
44707;DHT22;30433;45.596;8.408;2023-04-09T12:01:58;15.20;87.30
44707;DHT22;30433;45.596;8.408;2023-04-09T12:08:01;15.20;88.00
44707;DHT22;30433;45.596;8.408;2023-04-09T12:14:05;16.60;85.60
44707;DHT22;30433;45.596;8.408;2023-04-09T12:20:08;16.40;86.30
44707;DHT22;30433;45.596;8.408;2023-04-09T12:26:10;16.20;84.50
44707;DHT22;30433;45.596;8.408;2023-04-09T12:32:14;16.70;83.80
44707;DHT22;30433;45.596;8.408;2023-04-09T12:38:15;16.50;85.00
44707;DHT22;30433;45.596;8.408;2023-04-09T12:44:17;16.90;84.50
44707;DHT22;30433;45.596;8.408;2023-04-09T12:50:21;16.90;85.90
44707;DHT22;30433;45.596;8.408;2023-04-09T12:56:22;16.30;85.60
44707;DHT22;30433;45.596;8.408;2023-04-09T13:02:24;17.00;86.20
44707;DHT22;30433;45.596;8.408;2023-04-09T13:08:28;16.40;85.70
44707;DHT22;30433;45.596;8.408;2023-04-09T13:14:30;16.70;82.60
44707;DHT22;30433;45.596;8.408;2023-04-09T13:20:32;16.60;84.50
44707;DHT22;30433;45.596;8.408;2023-04-09T13:26:35;17.10;83.00
44707;DHT22;30433;45.596;8.408;2023-04-09T13:32:37;16.80;81.70
44707;DHT22;30433;45.596;8.408;2023-04-09T13:38:40;16.50;83.80
44707;DHT22;30433;45.596;8.408;2023-04-09T13:44:43;16.10;83.60
44707;DHT22;30433;45.596;8.408;2023-04-09T13:50:45;16.80;86.00
44707;DHT22;30433;45.596;8.408;2023-04-09T13:56:47;16.90;84.90
44707;DHT22;30433;45.596;8.408;2023-04-09T14:02:51;17.10;84.90
44707;DHT22;30433;45.596;8.408;2023-04-09T14:08:53;16.30;84.40
44707;DHT22;30433;45.596;8.408;2023-04-09T14:14:56;16.10;84.80
44707;DHT22;30433;45.596;8.408;2023-04-09T14:20:59;16.00;83.60
44707;DHT22;30433;45.596;8.408;2023-04-09T14:27:01;16.80;86.20
44707;DHT22;30433;45.596;8.408;2023-04-09T14:33:03;16.60;84.70
44707;DHT22;30433;45.596;8.408;2023-04-09T14:39:07;16.70;83.30
44707;DHT22;30433;45.596;8.408;2023-04-09T14:45:09;16.80;84.80
44707;DHT22;30433;45.596;8.408;2023-04-09T14:51:11;16.80;83.90
44707;DHT22;30433;45.596;8.408;2023-04-09T14:57:14;16.60;84.00
44707;DHT22;30433;45.596;8.408;2023-04-09T15:03:16;16.50;84.30
44707;DHT22;30433;45.596;8.408;2023-04-09T15:09:18;15.90;82.30
44707;DHT22;30433;45.596;8.408;2023-04-09T15:15:24;16.00;84.90
44707;DHT22;30433;45.596;8.408;2023-04-09T15:21:25;16.40;83.10
44707;DHT22;30433;45.596;8.408;2023-04-09T15:27:27;16.30;83.60
44707;DHT22;30433;45.596;8.408;2023-04-09T15:33:31;16.40;83.20
44707;DHT22;30433;45.596;8.408;2023-04-09T15:39:33;16.20;82.40
44707;DHT22;30433;45.596;8.408;2023-04-09T15:45:35;16.00;82.40
44707;DHT22;30433;45.596;8.408;2023-04-09T15:51:39;16.00;82.80
44707;DHT22;30433;45.596;8.408;2023-04-09T15:57:41;15.90;82.30
44707;DHT22;30433;45.596;8.408;2023-04-09T16:03:46;15.80;81.30
44707;DHT22;30433;45.596;8.408;2023-04-09T16:09:52;15.90;82.50
44707;DHT22;30433;45.596;8.408;2023-04-09T16:15:54;15.80;82.40
44707;DHT22;30433;45.596;8.408;2023-04-09T16:21:56;15.90;81.90
44707;DHT22;30433;45.596;8.408;2023-04-09T16:27:59;15.70;81.90
44707;DHT22;30433;45.596;8.408;2023-04-09T16:34:01;15.70;82.70
44707;DHT22;30433;45.596;8.408;2023-04-09T16:40:03;15.80;82.90
44707;DHT22;30433;45.596;8.408;2023-04-09T16:46:08;15.80;82.50
44707;DHT22;30433;45.596;8.408;2023-04-09T16:52:10;15.70;82.40
44707;DHT22;30433;45.596;8.408;2023-04-09T16:58:12;15.70;81.90
44707;DHT22;30433;45.596;8.408;2023-04-09T17:04:15;15.50;82.30
44707;DHT22;30433;45.596;8.408;2023-04-09T17:10:17;15.50;82.60
44707;DHT22;30433;45.596;8.408;2023-04-09T17:16:19;15.40;83.40
44707;DHT22;30433;45.596;8.408;2023-04-09T17:22:22;15.30;83.10
44707;DHT22;30433;45.596;8.408;2023-04-09T17:28:24;15.10;83.20
44707;DHT22;30433;45.596;8.408;2023-04-09T17:34:26;15.10;83.90
44707;DHT22;30433;45.596;8.408;2023-04-09T17:40:29;15.10;84.00
44707;DHT22;30433;45.596;8.408;2023-04-09T17:46:31;14.80;87.00
44707;DHT22;30433;45.596;8.408;2023-04-09T17:52:33;14.60;88.30
44707;DHT22;30433;45.596;8.408;2023-04-09T17:58:38;14.50;88.70
44707;DHT22;30433;45.596;8.408;2023-04-09T18:04:40;14.30;89.60
44707;DHT22;30433;45.596;8.408;2023-04-09T18:10:42;14.00;89.80
44707;DHT22;30433;45.596;8.408;2023-04-09T18:16:45;13.80;90.30
44707;DHT22;30433;45.596;8.408;2023-04-09T18:22:47;13.40;90.30
44707;DHT22;30433;45.596;8.408;2023-04-09T18:28:49;13.00;89.10
44707;DHT22;30433;45.596;8.408;2023-04-09T18:34:53;13.20;90.10
44707;DHT22;30433;45.596;8.408;2023-04-09T18:40:55;13.10;90.00
44707;DHT22;30433;45.596;8.408;2023-04-09T18:46:57;13.40;89.50
44707;DHT22;30433;45.596;8.408;2023-04-09T18:53:00;13.20;89.80
44707;DHT22;30433;45.596;8.408;2023-04-09T18:59:02;13.10;90.00
44707;DHT22;30433;45.596;8.408;2023-04-09T19:05:05;13.30;90.20
44707;DHT22;30433;45.596;8.408;2023-04-09T19:11:08;13.30;90.10
44707;DHT22;30433;45.596;8.408;2023-04-09T19:17:10;13.20;90.00
44707;DHT22;30433;45.596;8.408;2023-04-09T19:23:12;13.00;91.80
44707;DHT22;30433;45.596;8.408;2023-04-09T19:29:16;13.20;90.70
44707;DHT22;30433;45.596;8.408;2023-04-09T19:35:17;13.20;90.90
44707;DHT22;30433;45.596;8.408;2023-04-09T19:41:19;13.20;91.00
44707;DHT22;30433;45.596;8.408;2023-04-09T19:47:23;13.30;91.20
44707;DHT22;30433;45.596;8.408;2023-04-09T19:53:27;13.00;91.60
44707;DHT22;30433;45.596;8.408;2023-04-09T19:59:31;13.00;91.50
44707;DHT22;30433;45.596;8.408;2023-04-09T20:05:38;13.00;91.30
44707;DHT22;30433;45.596;8.408;2023-04-09T20:11:40;12.90;91.90
44707;DHT22;30433;45.596;8.408;2023-04-09T20:17:43;12.90;92.50
44707;DHT22;30433;45.596;8.408;2023-04-09T20:23:48;13.10;91.30
44707;DHT22;30433;45.596;8.408;2023-04-09T20:29:51;13.20;90.60
44707;DHT22;30433;45.596;8.408;2023-04-09T20:35:54;13.20;90.80
44707;DHT22;30433;45.596;8.408;2023-04-09T20:41:59;13.20;88.90
44707;DHT22;30433;45.596;8.408;2023-04-09T20:48:03;13.20;87.30
44707;DHT22;30433;45.596;8.408;2023-04-09T20:54:05;13.10;87.90
44707;DHT22;30433;45.596;8.408;2023-04-09T21:00:09;13.10;87.40
44707;DHT22;30433;45.596;8.408;2023-04-09T21:06:11;13.10;87.20
44707;DHT22;30433;45.596;8.408;2023-04-09T21:12:13;13.00;87.70
44707;DHT22;30433;45.596;8.408;2023-04-09T21:18:16;12.90;87.80
44707;DHT22;30433;45.596;8.408;2023-04-09T21:24:19;12.90;88.20
44707;DHT22;30433;45.596;8.408;2023-04-09T21:30:21;12.90;88.20
44707;DHT22;30433;45.596;8.408;2023-04-09T21:36:25;12.90;88.80
44707;DHT22;30433;45.596;8.408;2023-04-09T21:42:27;12.70;88.50
44707;DHT22;30433;45.596;8.408;2023-04-09T21:48:30;12.60;88.80
44707;DHT22;30433;45.596;8.408;2023-04-09T21:54:34;12.60;89.10
44707;DHT22;30433;45.596;8.408;2023-04-09T22:00:36;12.40;89.20
44707;DHT22;30433;45.596;8.408;2023-04-09T22:06:38;12.30;89.50
44707;DHT22;30433;45.596;8.408;2023-04-09T22:12:41;12.10;90.10
44707;DHT22;30433;45.596;8.408;2023-04-09T22:18:43;12.00;90.20
44707;DHT22;30433;45.596;8.408;2023-04-09T22:24:45;11.80;90.30
44707;DHT22;30433;45.596;8.408;2023-04-09T22:30:48;11.70;90.10
44707;DHT22;30433;45.596;8.408;2023-04-09T22:36:52;11.60;90.00
44707;DHT22;30433;45.596;8.408;2023-04-09T22:42:54;11.50;90.20
44707;DHT22;30433;45.596;8.408;2023-04-09T22:48:57;11.40;90.10
44707;DHT22;30433;45.596;8.408;2023-04-09T22:54:59;11.20;90.60
44707;DHT22;30433;45.596;8.408;2023-04-09T23:01:01;11.00;90.90
44707;DHT22;30433;45.596;8.408;2023-04-09T23:07:04;11.30;90.10
44707;DHT22;30433;45.596;8.408;2023-04-09T23:13:07;11.20;90.30
44707;DHT22;30433;45.596;8.408;2023-04-09T23:19:09;11.10;90.40
44707;DHT22;30433;45.596;8.408;2023-04-09T23:25:13;11.00;90.60
44707;DHT22;30433;45.596;8.408;2023-04-09T23:31:15;10.70;90.70
44707;DHT22;30433;45.596;8.408;2023-04-09T23:37:17;10.40;91.00
44707;DHT22;30433;45.596;8.408;2023-04-09T23:43:20;10.60;91.20
44707;DHT22;30433;45.596;8.408;2023-04-09T23:49:22;10.40;91.10
44707;DHT22;30433;45.596;8.408;2023-04-09T23:55:24;10.40;91.30
